KMFV/MFV METAR and TAF weather

Enter ICAO airport designator
Station Type Date Time Source
KMFV METAR 2022/08/12 15:35 UTC NOAA

KMFV 121535Z AUTO 01003KT 10SM BKN110 22/15 A3002 RMK AO2 LTG DSNT W T02220149


Station Type Date Time Source
KMFV Decoded METAR 2022/08/12 15:35 UTC NOAA

Melfa / Accomack Airport, VA, United States (KMFV) 37-39N 075-46W
Aug 12, 2022 - 11:35 AM EDT / 2022.08.12 1535 UTC
Wind: from the N (010 degrees) at 3 MPH (3 KT):0
Visibility: 10 mile(s):0
Sky conditions: mostly cloudy
Weather: Lightning observed
Temperature: 72.0 F (22.2 C)
Dew Point: 58.8 F (14.9 C)
Relative Humidity: 63%
Pressure (altimeter): 30.02 in. Hg (1016 hPa)
ob: KMFV 121535Z AUTO 01003KT 10SM BKN110 22/15 A3002 RMK AO2 LTG DSNT W T02220149
cycle: 15

Station Type Date Time Source
KMFV TAF UTC NOAA

Error!

Example: see airport list